Aeroporto :
LOGIN :

Iscrizione | Disclaimer

   EN    FR    IT 

 










Sommario :    VFR   VFR Marginale   IFR   IFR Intensivo   IFR Molto Intensivo
Visibilità : 
Base nubi : 
>= 8 km
>= 3000ft
5 / 8 km
1000 / 3000 ft
1500m / 5 km
500 / 1000 ft
800 / 1500m
200 / 500 ft
< 800m
< 200 ft
Simboli :   Temporali  Nebbia  Neve Forte  Precipitazioni Forti  Vento > 20 kt
SIGMETs :   Varie  Temporali  Ghiacco  Turbolenza  Onda orograficha  Ceneri Vulcaniche







- Altitudine del aeroporto : 1830 ft


EBLB - Butgenbach Elsenborn

ULTIMO METAR :
  • 170725Z AUTO VRB02KT 9999 FEW062/// BKN130/// 20/13 Q1017 BLU

METARs OBSOLETI :
  • 170655Z AUTO VRB02KT 9999 FEW068/// SCT081/// BKN130/// 19/12 Q1017 BLU
  • 170625Z AUTO VRB02KT 9999 FEW072/// BKN140/// 18/12 Q1017 BLU
  • 170555Z AUTO VRB01KT 9999 FEW073/// BKN140/// 17/12 Q1016 BLU
  • 170525Z AUTO VRB01KT 9999 BKN150/// 15/12 Q1016 BLU
  • 170455Z AUTO VRB01KT 9999 BKN087/// BKN110/// 14/11 Q1016 BLU
  • 170425Z AUTO VRB01KT 9999 OVC098/// 14/10 Q1016 BLU

Previsioni scadute.
Nessun NOTAM noto per questo aeroporto.



MetMap, La meteo Aeronautica in un colpo d'occhio ! - Copyright ORBIFLY Dicembre 2007 - Disclaimer

ORBIFLY MET'MAP TEAM :

Programmazione e sviluppo : Alexandra Zaïnal
Concezione e sviluppo : Baudouin d'Aumeries
Co-Programmazione e sviluppo : Marc-Olivier Méhu
Supporto tecnico e logistico : Manuel Goepfert
Aiuto per la traduzione : Arnaldo La Scala

Contatto : metmap@orbifly.com




FONTI E CREDITI :

   NOAA